Latest Weather Observations for Busselton Jetty

IDW60801

Issued at 10:35 am WST Wednesday 24 September 2014 (issued every 30 minutes, with the page automatically refreshed every 10 minutes)

About weather observations | Map of weather stations | Latest weather observations for WA | Other Formats
Station Details ID: 009937 Name: BUSSELTON JETTY Lat: -33.63 Lon: 115.34 Height: 3.0 m
Data from the previous 72 hours. | See also: Recent months for locations in Western Australia
Date/Time
WST
Temp
°C
App
Temp
°C
Dew
Point
Rel
Hum
%
Delta-T
°C
Wind Press
QNH
hPa
Press
MSL
hPa
Rain
since 9 am
mm
Dir
 
Spd
km/h
Gust
km/h
Spd
kts
Gust
kts
24/10:30am - - - - - WSW 0 4 0 2 - - -
24/10:00am - - - - - E 15 19 8 10 - - -
24/09:30am - - - - - E 15 19 8 10 - - -
24/09:00am - - - - - E 19 22 10 12 - - -
24/08:30am - - - - - ENE 11 13 6 7 - - -
24/08:00am - - - - - NE 13 17 7 9 - - -
24/07:30am - - - - - NE 17 22 9 12 - - -
24/07:00am - - - - - NE 13 17 7 9 - - -
24/06:30am - - - - - ENE 17 19 9 10 - - -
24/06:00am - - - - - E 15 19 8 10 - - -
24/05:30am - - - - - ESE 13 15 7 8 - - -
24/05:00am - - - - - SE 11 13 6 7 - - -
24/04:30am - - - - - SE 9 11 5 6 - - -
24/04:00am - - - - - SE 11 15 6 8 - - -
24/03:30am - - - - - ESE 15 19 8 10 - - -
24/03:00am - - - - - ESE 11 15 6 8 - - -
24/02:30am - - - - - NE 9 13 5 7 - - -
24/02:00am - - - - - ESE 9 13 5 7 - - -
24/01:30am - - - - - SE 15 15 8 8 - - -
24/01:00am - - - - - S 11 13 6 7 - - -
24/12:30am - - - - - S 9 13 5 7 - - -
24/12:00am - - - - - SSE 13 13 7 7 - - -
 
Date/Time
WST
Temp
°C
App
Temp
°C
Dew
Point
Rel
Hum
%
Delta-T
°C
Wind Press
QNH
hPa
Press
MSL
hPa
Rain
since 9 am
mm
Dir
 
Spd
km/h
Gust
km/h
Spd
kts
Gust
kts
23/11:30pm - - - - - S 11 13 6 7 - - -
23/11:00pm - - - - - NNW 7 11 4 6 - - -
23/10:30pm - - - - - NNE 7 9 4 5 - - -
23/10:00pm - - - - - CALM 0 0 0 0 - - -
23/09:30pm - - - - - NNW 6 7 3 4 - - -
23/09:00pm - - - - - SW 9 11 5 6 - - -
23/08:30pm - - - - - S 9 9 5 5 - - -
23/08:00pm - - - - - SSW 9 11 5 6 - - -
23/07:30pm - - - - - SW 9 11 5 6 - - -
23/07:00pm - - - - - W 13 17 7 9 - - -
23/06:30pm - - - - - WNW 20 24 11 13 - - -
23/06:00pm - - - - - WNW 20 26 11 14 - - -
23/05:30pm - - - - - NW 17 20 9 11 - - -
23/05:00pm - - - - - NNW 17 20 9 11 - - -
23/04:30pm - - - - - N 11 17 6 9 - - -
23/04:00pm - - - - - NW 6 7 3 4 - - -
23/03:30pm - - - - - W 6 7 3 4 - - -
23/03:00pm - - - - - WSW 13 15 7 8 - - -
23/02:30pm - - - - - W 26 30 14 16 - - -
23/02:00pm - - - - - WNW 13 17 7 9 - - -
23/01:30pm - - - - - N 6 7 3 4 - - -
23/01:00pm - - - - - N 2 7 1 4 - - -
23/12:30pm - - - - - CALM 0 0 0 0 - - -
23/12:00pm - - - - - NW 6 7 3 4 - - -
23/11:30am - - - - - N 6 9 3 5 - - -
23/11:00am - - - - - CALM 0 0 0 0 - - -
23/10:30am - - - - - N 6 7 3 4 - - -
23/10:00am - - - - - WNW 2 7 1 4 - - -
23/09:30am - - - - - WSW 6 9 3 5 - - -
23/09:00am - - - - - WSW 6 7 3 4 - - -
23/08:30am - - - - - S 7 9 4 5 - - -
23/08:00am - - - - - S 9 11 5 6 - - -
23/07:30am - - - - - S 9 11 5 6 - - -
23/07:00am - - - - - WSW 7 9 4 5 - - -
23/06:30am - - - - - SSW 6 7 3 4 - - -
23/06:00am - - - - - SSW 7 9 4 5 - - -
23/05:30am - - - - - W 7 7 4 4 - - -
23/05:00am - - - - - SW 9 11 5 6 - - -
23/04:30am - - - - - SSW 9 11 5 6 - - -
23/04:00am - - - - - SSW 11 15 6 8 - - -
23/03:30am - - - - - SW 11 13 6 7 - - -
23/03:00am - - - - - SW 17 20 9 11 - - -
23/02:30am - - - - - SW 13 15 7 8 - - -
23/02:00am - - - - - WSW 11 13 6 7 - - -
23/01:30am - - - - - SW 11 13 6 7 - - -
23/01:00am - - - - - SW 11 13 6 7 - - -
23/12:30am - - - - - WSW 11 13 6 7 - - -
23/12:00am - - - - - SW 9 11 5 6 - - -
 
Date/Time
WST
Temp
°C
App
Temp
°C
Dew
Point
Rel
Hum
%
Delta-T
°C
Wind Press
QNH
hPa
Press
MSL
hPa
Rain
since 9 am
mm
Dir
 
Spd
km/h
Gust
km/h
Spd
kts
Gust
kts
22/11:30pm - - - - - SW 9 13 5 7 - - -
22/11:00pm - - - - - SSW 11 15 6 8 - - -
22/10:30pm - - - - - SSW 13 15 7 8 - - -
22/10:00pm - - - - - SSW 13 17 7 9 - - -
22/09:30pm - - - - - SW 15 17 8 9 - - -
22/09:00pm - - - - - SW 15 19 8 10 - - -
22/08:30pm - - - - - SW 15 19 8 10 - - -
22/08:00pm - - - - - SW 13 17 7 9 - - -
22/07:30pm - - - - - SSW 15 19 8 10 - - -
22/07:00pm - - - - - SW 20 26 11 14 - - -
22/06:30pm - - - - - SW 24 30 13 16 - - -
22/06:00pm - - - - - SW 20 26 11 14 - - -
22/05:30pm - - - - - SW 28 33 15 18 - - -
22/05:00pm - - - - - SW 30 37 16 20 - - -
22/04:30pm - - - - - SW 33 41 18 22 - - -
22/04:00pm - - - - - SW 28 33 15 18 - - -
22/03:30pm - - - - - SSW 32 37 17 20 - - -
22/03:00pm - - - - - WSW 30 35 16 19 - - -
22/02:30pm - - - - - WSW 30 37 16 20 - - -
22/02:00pm - - - - - WSW 26 33 14 18 - - -
22/01:30pm - - - - - SSW 22 32 12 17 - - -
22/01:00pm - - - - - S 32 39 17 21 - - -
22/12:35pm - - - - - WSW 33 37 18 20 - - -
22/12:30pm - - - - - WSW 13 17 7 9 - - -
22/12:00pm - - - - - SW 13 19 7 10 - - -
22/11:30am - - - - - WSW 35 39 19 21 - - -
22/11:00am - - - - - S 24 33 13 18 - - -
22/10:30am - - - - - S 26 37 14 20 - - -
22/10:00am - - - - - S 26 32 14 17 - - -
22/09:30am - - - - - SSE 22 28 12 15 - - -
22/09:00am - - - - - S 24 32 13 17 - - -
22/08:30am - - - - - S 20 28 11 15 - - -
22/08:00am - - - - - S 17 24 9 13 - - -
22/07:30am - - - - - S 15 20 8 11 - - -
22/07:00am - - - - - S 22 32 12 17 - - -
22/06:30am - - - - - SW 22 26 12 14 - - -
22/06:00am - - - - - SSW 17 20 9 11 - - -
22/05:30am - - - - - SSW 17 20 9 11 - - -
22/05:00am - - - - - SW 17 22 9 12 - - -
22/04:30am - - - - - SW 28 35 15 19 - - -
22/04:00am - - - - - SW 30 37 16 20 - - -
22/03:30am - - - - - WSW 35 43 19 23 - - -
22/03:00am - - - - - WSW 24 30 13 16 - - -
22/02:30am - - - - - WSW 24 30 13 16 - - -
22/02:00am - - - - - SW 26 33 14 18 - - -
22/01:30am - - - - - WSW 22 28 12 15 - - -
22/01:00am - - - - - WSW 20 26 11 14 - - -
22/12:30am - - - - - SW 13 17 7 9 - - -
22/12:00am - - - - - SSW 20 28 11 15 - - -
 
Date/Time
WST
Temp
°C
App
Temp
°C
Dew
Point
Rel
Hum
%
Delta-T
°C
Wind Press
QNH
hPa
Press
MSL
hPa
Rain
since 9 am
mm
Dir
 
Spd
km/h
Gust
km/h
Spd
kts
Gust
kts
21/11:30pm - - - - - SW 19 26 10 14 - - -
21/11:00pm - - - - - SSW 13 17 7 9 - - -
21/10:30pm - - - - - WSW 22 26 12 14 - - -
21/10:00pm - - - - - WSW 26 32 14 17 - - -
21/09:30pm - - - - - SW 20 26 11 14 - - -
21/09:00pm - - - - - SSW 26 35 14 19 - - -
21/08:30pm - - - - - SW 26 32 14 17 - - -
21/08:00pm - - - - - WSW 26 32 14 17 - - -
21/07:30pm - - - - - SW 30 35 16 19 - - -
21/07:00pm - - - - - SW 32 39 17 21 - - -
21/06:30pm - - - - - SW 28 35 15 19 - - -
21/06:00pm - - - - - SW 30 35 16 19 - - -
21/05:30pm - - - - - SW 33 41 18 22 - - -
21/05:00pm - - - - - SW 35 44 19 24 - - -
21/04:30pm - - - - - SW 39 52 21 28 - - -
21/04:17pm - - - - - SW 39 57 21 31 - - -
21/04:00pm - - - - - SW 43 54 23 29 - - -
21/03:37pm - - - - - SW 33 52 18 28 - - -
21/03:30pm - - - - - SW 35 48 19 26 - - -
21/03:00pm - - - - - SW 32 46 17 25 - - -
21/02:30pm - - - - - SW 32 39 17 21 - - -
21/02:00pm - - - - - WSW 20 26 11 14 - - -
21/01:30pm - - - - - S 7 11 4 6 - - -
21/01:00pm - - - - - SSE 6 9 3 5 - - -
21/12:30pm - - - - - NE 11 13 6 7 - - -
21/12:00pm - - - - - E 9 13 5 7 - - -
21/11:30am - - - - - SW 9 11 5 6 - - -
21/11:00am - - - - - WSW 6 11 3 6 - - -

Other Formats:

Comma delimited format used in spreadsheet applications
http://www.bom.gov.au/fwo/IDW60801/IDW60801.95602.axf

JavaScript Object Notation format (JSON) in row-major order
http://www.bom.gov.au/fwo/IDW60801/IDW60801.95602.json